CheckWX is a tool to help pilots better visualize weather data.  It is not intended as a substitute for an official pre-flight weather briefing.

08:38:08 UTC

KRHV METAR
Reid-Hillview of Santa Clara County Airport
San Jose, California, USA
Current

3 hours ago

KRHV 060553Z 00000KT 10SM FEW015 BKN050 14/11 A3005
Observed
Dec-6 @ 05:53 UTC
Visibility
10 SM
Flight Rules
VFR
Cloud Levels
  • Few at 1,500' AGL
  • Broken at 5,000' AGL
Temperature
14°C / 57°F
Dewpoint
11°C / 52°F
Humidity
82%
Altimeter
30.05" Hg
Pressure
1017.62 hPa
Previous

4 hours ago

KRHV 060447Z 00000KT 10SM FEW015 BKN050 15/11 A3005
Observed
Dec-6 @ 04:47 UTC
Visibility
10 SM
Flight Rules
VFR
Cloud Levels
  • Few at 1,500' AGL
  • Broken at 5,000' AGL
Temperature
15°C / 59°F
Dewpoint
11°C / 52°F
Humidity
77%
Altimeter
30.05" Hg
Pressure
1017.62 hPa
Previous

5 hours ago

KRHV 060350Z 00000KT 10SM BKN050 15/11 A3004
Observed
Dec-6 @ 03:50 UTC
Visibility
10 SM
Flight Rules
VFR
Cloud Levels
  • Broken at 5,000' AGL
Temperature
15°C / 59°F
Dewpoint
11°C / 52°F
Humidity
77%
Altimeter
30.04" Hg
Pressure
1017.32 hPa